Time;durP1;ratioP1;P1;durP2;ratioP2;P2;SDS_P1;SDS_P2;PMS_P1;PMS_P2;Temp;Humidity;BMP_temperature;BMP_pressure;BME280_temperature;BME280_humidity;BME280_pressure;Samples;Min_cycle;Max_cycle;Signal;HPM_P1;HPM_P2
2021/05/27 00:00:18;;;;;;;7.60;2.13;;;16.30;69.50;;;;;;5115706;28;20027;-69
2021/05/27 00:02:44;;;;;;;5.57;2.45;;;16.30;69.90;;;;;;5115465;28;20043;-68
2021/05/27 00:05:11;;;;;;;5.25;2.67;;;16.20;69.80;;;;;;5115456;28;20063;-68
2021/05/27 00:07:36;;;;;;;7.30;2.17;;;16.20;70.10;;;;;;5115560;28;20161;-69
2021/05/27 00:10:04;;;;;;;6.03;2.42;;;16.20;70.20;;;;;;5114985;28;20057;-68
2021/05/27 00:12:30;;;;;;;6.40;2.55;;;16.10;70.20;;;;;;5115112;28;20121;-69
2021/05/27 00:14:55;;;;;;;5.70;2.40;;;16.10;70.10;;;;;;5113952;28;20395;-69
2021/05/27 00:17:21;;;;;;;7.70;2.53;;;16.10;70.00;;;;;;5115229;28;20361;-69
2021/05/27 00:19:47;;;;;;;8.73;2.33;;;16.10;70.00;;;;;;5115255;28;20039;-69
2021/05/27 00:22:13;;;;;;;6.30;2.40;;;16.00;69.90;;;;;;5113871;28;20364;-69
2021/05/27 00:24:39;;;;;;;4.07;2.40;;;16.00;70.00;;;;;;5115104;28;20080;-69
2021/05/27 00:27:06;;;;;;;14.25;3.08;;;15.90;69.60;;;;;;5115161;28;20031;-69
2021/05/27 00:29:32;;;;;;;13.00;3.70;;;15.90;69.70;;;;;;5114925;28;20055;-68
2021/05/27 00:31:58;;;;;;;5.57;2.50;;;15.80;69.50;;;;;;5115032;28;20028;-69
2021/05/27 00:34:24;;;;;;;6.68;2.10;;;15.80;69.90;;;;;;5114841;28;20039;-69
2021/05/27 00:36:50;;;;;;;4.63;2.25;;;15.70;69.80;;;;;;5114526;28;20085;-69
2021/05/27 00:39:16;;;;;;;5.22;2.20;;;15.70;69.90;;;;;;5114239;28;20110;-69
2021/05/27 00:41:41;;;;;;;6.25;2.40;;;15.70;70.00;;;;;;5114819;28;20020;-69
2021/05/27 00:44:26;;;;;;;7.22;2.15;;;15.70;69.90;;;;;;5114405;28;20053;-68
2021/05/27 00:46:53;;;;;;;8.65;2.25;;;15.70;69.40;;;;;;5114484;28;20467;-68
2021/05/27 00:49:19;;;;;;;5.93;2.33;;;15.60;69.80;;;;;;5114313;28;20031;-69
2021/05/27 00:51:46;;;;;;;5.60;2.15;;;15.60;69.90;;;;;;5114167;28;20084;-69
2021/05/27 00:54:12;;;;;;;5.53;2.28;;;15.60;70.10;;;;;;5113991;28;20142;-68
2021/05/27 00:56:39;;;;;;;4.20;2.35;;;15.60;70.00;;;;;;5114287;28;20020;-69
2021/05/27 00:59:05;;;;;;;5.57;2.22;;;15.50;70.50;;;;;;5111515;28;20035;-68
2021/05/27 01:01:31;;;;;;;4.55;2.30;;;15.50;70.80;;;;;;5111470;27;20507;-68
2021/05/27 01:03:57;;;;;;;6.07;2.25;;;15.50;70.40;;;;;;5111697;28;20480;-68
2021/05/27 01:06:23;;;;;;;6.45;1.98;;;15.50;70.50;;;;;;5114082;28;20027;-69
2021/05/27 01:08:49;;;;;;;8.80;2.47;;;15.50;70.80;;;;;;5113902;28;20439;-69
2021/05/27 01:11:16;;;;;;;6.18;2.53;;;15.50;71.80;;;;;;5113881;28;20023;-68
2021/05/27 01:13:42;;;;;;;8.60;2.33;;;15.40;70.80;;;;;;5113818;28;20395;-69
2021/05/27 01:16:13;;;;;;;8.00;2.15;;;15.40;70.80;;;;;;5114000;28;20022;-68
2021/05/27 01:18:38;;;;;;;11.02;2.33;;;15.40;70.90;;;;;;5114275;28;20034;-68
2021/05/27 01:21:04;;;;;;;4.90;2.20;;;15.40;70.70;;;;;;5113931;28;20387;-68
2021/05/27 01:23:30;;;;;;;3.67;2.22;;;15.40;70.60;;;;;;5113967;28;20023;-68
2021/05/27 01:25:58;;;;;;;3.25;1.92;;;15.50;70.50;;;;;;5113907;28;20072;-68
2021/05/27 01:28:27;;;;;;;6.15;1.90;;;15.50;70.30;;;;;;5112607;28;20066;-69
2021/05/27 01:30:53;;;;;;;5.15;2.03;;;15.40;69.80;;;;;;5114030;27;20031;-69
2021/05/27 01:33:19;;;;;;;4.55;2.20;;;15.40;69.90;;;;;;5113531;28;20379;-68
2021/05/27 01:35:46;;;;;;;9.88;2.00;;;15.40;69.50;;;;;;5113402;28;20038;-69
2021/05/27 01:38:19;;;;;;;4.28;2.10;;;15.40;69.30;;;;;;5113867;28;20438;-68
2021/05/27 01:40:46;;;;;;;6.43;2.00;;;15.40;69.30;;;;;;5113792;28;20031;-69
2021/05/27 01:43:11;;;;;;;7.13;1.75;;;15.30;69.70;;;;;;5113609;28;20467;-69
2021/05/27 01:45:38;;;;;;;3.65;1.50;;;15.30;69.90;;;;;;5113658;28;20034;-69
2021/05/27 01:48:04;;;;;;;4.95;1.90;;;15.30;69.60;;;;;;5112609;28;20027;-69
2021/05/27 01:50:30;;;;;;;9.10;1.75;;;15.30;69.40;;;;;;5113171;28;20081;-69
2021/05/27 01:53:01;;;;;;;8.02;1.80;;;15.30;69.50;;;;;;5113493;28;20046;-70
2021/05/27 01:55:27;;;;;;;8.13;2.10;;;15.30;69.50;;;;;;5113651;28;20028;-69
2021/05/27 01:57:55;;;;;;;6.75;2.22;;;15.20;69.60;;;;;;5113321;28;20383;-69
2021/05/27 02:00:22;;;;;;;6.35;2.08;;;15.20;69.80;;;;;;5113556;28;20043;-68
2021/05/27 02:02:48;;;;;;;7.97;2.40;;;15.20;70.00;;;;;;5113617;28;20032;-69
2021/05/27 02:05:14;;;;;;;6.25;1.90;;;15.10;69.90;;;;;;5113613;28;20035;-68
2021/05/27 02:07:41;;;;;;;7.32;2.42;;;15.10;70.00;;;;;;5113595;28;20106;-69
2021/05/27 02:10:08;;;;;;;8.60;2.22;;;15.10;70.00;;;;;;5113295;28;20510;-69
2021/05/27 02:12:33;;;;;;;5.28;2.10;;;15.10;69.80;;;;;;5113317;28;20023;-69
2021/05/27 02:14:59;;;;;;;5.18;2.40;;;15.10;70.00;;;;;;5113438;28;20035;-68
2021/05/27 02:17:25;;;;;;;7.60;1.83;;;15.10;69.90;;;;;;5113637;28;20050;-68
2021/05/27 02:19:51;;;;;;;5.28;2.05;;;15.10;69.80;;;;;;5113357;28;20034;-69
2021/05/27 02:22:16;;;;;;;7.60;2.00;;;15.00;69.10;;;;;;5113259;28;20024;-68
2021/05/27 02:24:42;;;;;;;5.35;2.10;;;15.00;69.20;;;;;;5113167;28;20059;-68
2021/05/27 02:27:08;;;;;;;5.10;2.30;;;15.00;69.40;;;;;;5113170;28;20052;-69
2021/05/27 02:29:34;;;;;;;4.15;1.90;;;15.00;69.50;;;;;;5113258;28;20531;-69
2021/05/27 02:31:59;;;;;;;5.15;1.85;;;14.90;69.60;;;;;;5112974;28;20031;-68
2021/05/27 02:34:25;;;;;;;6.18;2.20;;;14.90;69.40;;;;;;5113131;28;20391;-68
2021/05/27 02:36:51;;;;;;;8.20;2.05;;;14.80;69.90;;;;;;5113241;28;20019;-69
2021/05/27 02:39:17;;;;;;;6.10;2.30;;;14.80;70.00;;;;;;5113042;28;20027;-69
2021/05/27 02:41:42;;;;;;;7.40;2.42;;;14.80;70.20;;;;;;5113185;28;20024;-69
2021/05/27 02:44:08;;;;;;;8.98;2.20;;;14.80;70.50;;;;;;5113050;28;20023;-68
2021/05/27 02:46:34;;;;;;;8.23;2.33;;;14.80;70.30;;;;;;5113137;28;20024;-68
2021/05/27 02:49:00;;;;;;;12.77;2.20;;;14.70;70.30;;;;;;5113225;28;20020;-68
2021/05/27 02:51:26;;;;;;;13.15;4.38;;;14.70;70.30;;;;;;5113198;28;20484;-69
2021/05/27 02:53:51;;;;;;;9.40;2.58;;;14.70;70.10;;;;;;5112608;28;20040;-68
2021/05/27 02:56:17;;;;;;;10.73;2.50;;;14.60;70.70;;;;;;5112861;28;20015;-69
2021/05/27 02:58:43;;;;;;;9.55;3.10;;;14.60;70.20;;;;;;5112831;28;20081;-68
2021/05/27 03:01:10;;;;;;;8.15;2.20;;;14.60;70.30;;;;;;5114374;28;20027;-69
2021/05/27 03:03:36;;;;;;;4.78;2.08;;;14.50;71.20;;;;;;5116504;27;20032;-69
2021/05/27 03:06:01;;;;;;;13.88;2.55;;;14.50;70.60;;;;;;5116670;28;20073;-69
2021/05/27 03:08:28;;;;;;;6.95;2.47;;;14.50;70.60;;;;;;5116623;28;20058;-69
2021/05/27 03:10:55;;;;;;;7.00;2.83;;;14.50;70.90;;;;;;5116763;28;20024;-68
2021/05/27 03:13:20;;;;;;;3.88;1.90;;;14.60;71.40;;;;;;5116414;28;20024;-69
2021/05/27 03:15:46;;;;;;;5.22;1.92;;;14.50;71.00;;;;;;5116293;28;20472;-68
2021/05/27 03:18:12;;;;;;;6.15;2.38;;;14.50;70.90;;;;;;5116508;27;20383;-68
2021/05/27 03:20:38;;;;;;;6.20;2.17;;;14.50;71.30;;;;;;5116079;28;20011;-68
2021/05/27 03:23:05;;;;;;;5.00;2.22;;;14.50;71.50;;;;;;5116352;28;20012;-68
2021/05/27 03:25:33;;;;;;;4.50;2.22;;;14.50;71.40;;;;;;5116520;28;20027;-69
2021/05/27 03:27:59;;;;;;;7.35;1.98;;;14.50;71.70;;;;;;5116247;28;20039;-69
2021/05/27 03:30:24;;;;;;;5.55;1.90;;;14.60;71.60;;;;;;5115937;28;20023;-68
2021/05/27 03:32:51;;;;;;;10.63;2.10;;;14.60;71.40;;;;;;5116079;28;20415;-68
2021/05/27 03:35:17;;;;;;;15.65;2.20;;;14.60;71.40;;;;;;5116226;28;20031;-68
2021/05/27 03:37:42;;;;;;;9.95;2.40;;;14.60;71.50;;;;;;5115854;28;20379;-69
2021/05/27 03:40:13;;;;;;;12.32;1.98;;;14.60;71.40;;;;;;5116207;28;20065;-69
2021/05/27 03:42:53;;;;;;;8.85;2.28;;;14.60;71.50;;;;;;5116163;28;20024;-68
2021/05/27 03:45:30;;;;;;;13.90;2.00;;;14.60;71.70;;;;;;5115972;27;20024;-68
2021/05/27 03:47:56;;;;;;;9.75;2.63;;;14.60;71.40;;;;;;5115873;28;20186;-69
2021/05/27 03:50:24;;;;;;;8.23;2.00;;;14.60;71.50;;;;;;5115617;28;20028;-68
2021/05/27 03:52:50;;;;;;;12.10;2.17;;;14.60;71.40;;;;;;5115534;28;20028;-69
2021/05/27 03:55:17;;;;;;;8.27;1.88;;;14.60;71.80;;;;;;5115354;28;20516;-69
2021/05/27 03:57:45;;;;;;;7.25;2.03;;;14.60;71.70;;;;;;5114151;28;20015;-69
2021/05/27 04:03:04;;;;;;;6.25;1.73;;;14.70;71.80;;;;;;5115825;28;20454;-68
2021/05/27 04:08:16;;;;;;;5.20;1.52;;;14.70;71.40;;;;;;5115753;28;20112;-69
2021/05/27 04:10:42;;;;;;;6.90;1.85;;;14.80;71.20;;;;;;5115553;28;20030;-68
2021/05/27 04:13:07;;;;;;;8.35;1.80;;;14.70;70.70;;;;;;5115280;28;20471;-68
2021/05/27 04:15:35;;;;;;;6.10;1.75;;;14.70;70.30;;;;;;5115186;28;20027;-68
2021/05/27 04:18:10;;;;;;;4.60;1.55;;;14.80;70.30;;;;;;5115293;28;20069;-68
2021/05/27 04:20:40;;;;;;;5.30;1.58;;;14.80;70.60;;;;;;5115304;28;20049;-69
2021/05/27 04:23:09;;;;;;;9.52;1.80;;;14.80;70.10;;;;;;5115579;28;20023;-68
2021/05/27 04:25:35;;;;;;;5.82;1.70;;;14.80;69.80;;;;;;5115175;27;20051;-68
2021/05/27 04:28:01;;;;;;;8.82;2.38;;;14.80;69.30;;;;;;5115045;28;20044;-69
2021/05/27 04:30:28;;;;;;;2.97;1.65;;;14.80;69.10;;;;;;5115541;27;20027;-68
2021/05/27 04:33:06;;;;;;;7.28;1.77;;;14.80;69.30;;;;;;5115028;28;20026;-68
2021/05/27 04:35:39;;;;;;;9.27;1.73;;;14.80;69.40;;;;;;5113747;28;20032;-68
2021/05/27 04:38:10;;;;;;;6.25;1.70;;;14.80;69.20;;;;;;5114733;28;20087;-68
2021/05/27 04:40:38;;;;;;;6.13;1.92;;;14.80;69.20;;;;;;5114938;28;20028;-68
2021/05/27 04:43:04;;;;;;;10.80;2.22;;;14.80;69.00;;;;;;5114729;28;20064;-68
2021/05/27 04:45:29;;;;;;;6.32;1.77;;;14.80;68.90;;;;;;5114645;28;20074;-68
2021/05/27 04:47:55;;;;;;;5.50;2.00;;;14.80;69.10;;;;;;5114530;28;20048;-68
2021/05/27 04:50:21;;;;;;;11.07;2.08;;;14.80;69.30;;;;;;5114776;28;20114;-68
2021/05/27 04:52:49;;;;;;;4.18;1.70;;;14.90;69.50;;;;;;5114360;28;20103;-68
2021/05/27 04:55:16;;;;;;;4.90;1.98;;;14.90;69.50;;;;;;5114437;28;20076;-69
2021/05/27 04:57:42;;;;;;;8.98;1.80;;;14.90;69.80;;;;;;5114472;28;20386;-68
2021/05/27 05:00:15;;;;;;;5.82;1.70;;;14.90;69.60;;;;;;5114567;28;20027;-68
2021/05/27 05:02:41;;;;;;;9.57;2.20;;;15.00;69.40;;;;;;5114206;28;20479;-68
2021/05/27 05:05:09;;;;;;;11.52;2.05;;;15.00;70.00;;;;;;5114319;28;20037;-68
2021/05/27 05:07:35;;;;;;;13.02;2.28;;;14.90;70.10;;;;;;5114479;28;20028;-73
2021/05/27 05:10:01;;;;;;;19.65;2.65;;;14.90;70.30;;;;;;5114377;28;20471;-68
2021/05/27 05:12:26;;;;;;;11.93;2.00;;;15.00;70.80;;;;;;5114262;28;20019;-68
2021/05/27 05:14:52;;;;;;;7.10;2.15;;;15.00;71.00;;;;;;5114153;28;20039;-68
2021/05/27 05:17:17;;;;;;;8.13;2.08;;;15.10;71.10;;;;;;5114148;28;20032;-68
2021/05/27 05:19:43;;;;;;;6.10;1.85;;;15.10;71.20;;;;;;5113894;28;20028;-68
2021/05/27 05:22:09;;;;;;;6.28;1.90;;;15.10;71.50;;;;;;5114385;28;20069;-68
2021/05/27 05:24:35;;;;;;;5.60;2.03;;;15.10;71.80;;;;;;5113851;28;20444;-68
2021/05/27 05:27:02;;;;;;;8.30;2.30;;;15.20;72.10;;;;;;5113942;28;20028;-67
2021/05/27 05:29:28;;;;;;;5.38;2.28;;;15.20;72.20;;;;;;5113997;28;20051;-67
2021/05/27 05:31:53;;;;;;;7.15;2.10;;;15.30;72.20;;;;;;5113960;28;20058;-68
2021/05/27 05:34:19;;;;;;;5.05;2.00;;;15.30;72.30;;;;;;5113696;28;20039;-67
2021/05/27 05:36:45;;;;;;;5.43;2.20;;;15.40;72.20;;;;;;5113686;28;20037;-68
2021/05/27 05:39:10;;;;;;;5.55;2.40;;;15.40;71.70;;;;;;5113653;28;20063;-68
2021/05/27 05:41:37;;;;;;;5.82;2.22;;;15.50;71.60;;;;;;5113529;28;20028;-68
2021/05/27 05:44:03;;;;;;;5.28;2.13;;;15.50;71.80;;;;;;5113710;28;20483;-68
2021/05/27 05:46:29;;;;;;;5.00;1.90;;;15.60;71.90;;;;;;5113828;28;20032;-68
2021/05/27 05:48:55;;;;;;;8.18;2.15;;;15.60;71.80;;;;;;5113446;28;20033;-68
2021/05/27 05:51:20;;;;;;;4.25;2.00;;;15.60;71.80;;;;;;5113618;28;20424;-69
2021/05/27 05:53:46;;;;;;;5.28;1.80;;;15.70;71.90;;;;;;5113474;27;20092;-68
2021/05/27 05:56:12;;;;;;;11.60;2.05;;;15.80;71.50;;;;;;5113611;28;20102;-68
2021/05/27 05:58:38;;;;;;;7.25;2.10;;;15.80;71.20;;;;;;5112648;28;20051;-68
2021/05/27 06:01:03;;;;;;;6.70;1.85;;;15.80;71.40;;;;;;5112405;28;20053;-68
2021/05/27 06:03:32;;;;;;;3.60;1.70;;;15.80;71.60;;;;;;5112978;28;20023;-68
2021/05/27 06:05:58;;;;;;;4.80;1.70;;;15.90;71.70;;;;;;5113276;28;20447;-69
2021/05/27 06:08:24;;;;;;;7.72;2.15;;;15.90;71.50;;;;;;5112866;28;20102;-76
2021/05/27 06:10:49;;;;;;;4.85;1.85;;;15.90;71.60;;;;;;5113476;28;20126;-73
2021/05/27 06:13:15;;;;;;;6.70;1.80;;;16.00;71.50;;;;;;5112728;28;21966;-66
2021/05/27 06:15:42;;;;;;;5.65;1.85;;;16.00;71.40;;;;;;5113051;28;20062;-78
2021/05/27 06:18:08;;;;;;;6.85;1.80;;;16.00;71.80;;;;;;5112843;28;20057;-78
2021/05/27 06:20:33;;;;;;;5.85;1.85;;;16.10;71.90;;;;;;5113039;28;20093;-69
2021/05/27 06:22:59;;;;;;;6.07;2.17;;;16.10;71.50;;;;;;5112634;28;20038;-74
2021/05/27 06:25:26;;;;;;;3.97;1.92;;;16.10;71.20;;;;;;5113160;28;20035;-68
2021/05/27 06:27:52;;;;;;;4.78;1.83;;;16.10;70.70;;;;;;5113175;28;20016;-68
2021/05/27 06:30:20;;;;;;;4.68;2.10;;;16.20;70.20;;;;;;5113339;28;20038;-67
2021/05/27 06:32:46;;;;;;;5.10;2.22;;;16.20;69.90;;;;;;5113494;28;20046;-66
2021/05/27 06:35:13;;;;;;;8.25;2.42;;;16.20;69.70;;;;;;5113253;28;20040;-66
2021/05/27 06:37:41;;;;;;;6.47;2.22;;;16.30;69.60;;;;;;5117045;28;20022;-66
2021/05/27 06:40:12;;;;;;;9.52;2.90;;;16.40;69.70;;;;;;5117193;28;20077;-66
2021/05/27 06:42:38;;;;;;;8.07;2.47;;;16.40;69.30;;;;;;5117429;28;20039;-68
2021/05/27 06:45:05;;;;;;;7.85;2.10;;;16.50;68.90;;;;;;5117016;28;20069;-66
2021/05/27 06:47:30;;;;;;;7.40;2.30;;;16.50;68.40;;;;;;5117060;28;20034;-66
2021/05/27 06:49:56;;;;;;;9.40;2.22;;;16.60;68.00;;;;;;5116748;28;20024;-66
2021/05/27 06:52:22;;;;;;;7.28;2.30;;;16.60;68.00;;;;;;5116408;28;20023;-66
2021/05/27 06:54:47;;;;;;;11.15;2.25;;;16.60;67.80;;;;;;5113958;27;20047;-66
2021/05/27 06:57:13;;;;;;;8.68;2.67;;;16.70;68.20;;;;;;5113528;28;20494;-66
2021/05/27 06:59:39;;;;;;;4.53;2.30;;;16.80;68.10;;;;;;5116548;27;20156;-66
2021/05/27 07:02:05;;;;;;;11.45;2.42;;;16.80;67.90;;;;;;5116662;28;20065;-66
2021/05/27 07:04:31;;;;;;;5.88;2.20;;;16.90;68.00;;;;;;5116835;28;20031;-66
2021/05/27 07:06:56;;;;;;;4.65;2.03;;;16.90;68.10;;;;;;5117169;28;20059;-66
2021/05/27 07:09:22;;;;;;;6.40;2.33;;;17.00;68.30;;;;;;5116455;28;20031;-66
2021/05/27 07:11:48;;;;;;;10.25;2.63;;;17.10;68.10;;;;;;5117269;28;20028;-65
2021/05/27 07:14:15;;;;;;;7.75;2.05;;;17.10;68.10;;;;;;5116742;28;20042;-66
2021/05/27 07:16:40;;;;;;;7.60;2.17;;;17.20;67.90;;;;;;5116895;28;20024;-66
2021/05/27 07:19:06;;;;;;;6.88;1.95;;;17.20;67.70;;;;;;5116844;28;20028;-66
2021/05/27 07:21:32;;;;;;;7.65;2.28;;;17.20;68.20;;;;;;5116564;28;20024;-66
2021/05/27 07:23:58;;;;;;;4.05;2.05;;;17.30;68.10;;;;;;5116354;28;20103;-66
2021/05/27 07:26:24;;;;;;;5.85;2.13;;;17.40;68.10;;;;;;5116476;28;20028;-66
2021/05/27 07:28:49;;;;;;;5.22;1.58;;;17.50;67.80;;;;;;5116478;28;20024;-66
2021/05/27 07:31:15;;;;;;;9.95;2.13;;;17.60;67.10;;;;;;5116477;28;20024;-66
2021/05/27 07:33:41;;;;;;;6.95;2.45;;;17.70;66.30;;;;;;5116468;27;20042;-66
2021/05/27 07:36:07;;;;;;;6.18;2.00;;;17.70;66.10;;;;;;5116211;28;20036;-67
2021/05/27 07:38:33;;;;;;;10.98;2.47;;;17.80;66.00;;;;;;5116156;28;20042;-66
2021/05/27 07:40:59;;;;;;;6.32;1.80;;;17.90;65.80;;;;;;5116109;28;20028;-66
2021/05/27 07:43:25;;;;;;;7.25;1.67;;;18.00;65.50;;;;;;5116241;28;20024;-66
2021/05/27 07:45:51;;;;;;;7.03;1.75;;;18.10;64.90;;;;;;5116123;28;20023;-66
2021/05/27 07:48:16;;;;;;;5.97;1.75;;;18.20;64.80;;;;;;5115580;28;20472;-66
2021/05/27 07:50:42;;;;;;;5.57;1.75;;;18.30;65.40;;;;;;5115954;28;20027;-66
2021/05/27 07:53:09;;;;;;;13.45;1.90;;;18.40;65.20;;;;;;5115574;28;20072;-66
2021/05/27 07:55:36;;;;;;;7.95;2.00;;;18.50;65.50;;;;;;5115914;28;20032;-66
2021/05/27 07:58:02;;;;;;;3.50;1.52;;;18.60;66.00;;;;;;5115871;28;20483;-66
2021/05/27 08:00:28;;;;;;;11.73;2.10;;;18.60;65.90;;;;;;5115539;28;20468;-66
2021/05/27 08:02:53;;;;;;;7.10;1.92;;;18.70;66.30;;;;;;5115762;28;20114;-65
2021/05/27 08:05:22;;;;;;;5.57;1.83;;;18.70;66.40;;;;;;5115764;28;20024;-66
2021/05/27 08:07:49;;;;;;;4.97;1.83;;;18.80;65.30;;;;;;5115500;28;20420;-66
2021/05/27 08:10:15;;;;;;;7.32;1.73;;;18.80;64.80;;;;;;5115733;28;20031;-66
2021/05/27 08:12:41;;;;;;;5.43;1.95;;;18.90;64.80;;;;;;5114995;28;20106;-67
2021/05/27 08:15:08;;;;;;;7.43;1.83;;;19.00;64.80;;;;;;5114744;28;20036;-66
2021/05/27 08:17:34;;;;;;;5.90;1.70;;;19.00;64.70;;;;;;5114693;28;20036;-67
2021/05/27 08:20:01;;;;;;;3.55;1.60;;;19.00;63.70;;;;;;5113506;28;20070;-66
2021/05/27 08:22:30;;;;;;;4.80;1.77;;;19.10;63.20;;;;;;5114547;28;20027;-66
2021/05/27 08:24:56;;;;;;;4.78;1.77;;;19.10;63.50;;;;;;5113144;28;20023;-66
2021/05/27 08:27:21;;;;;;;4.40;1.60;;;19.20;64.00;;;;;;5113925;28;20024;-66
2021/05/27 08:29:47;;;;;;;7.25;1.90;;;19.20;63.30;;;;;;5130263;22;20438;-66
2021/05/27 08:32:13;;;;;;;7.80;1.65;;;19.30;60.20;;;;;;5115175;28;20032;-66
2021/05/27 08:34:39;;;;;;;5.95;1.50;;;19.30;60.00;;;;;;5114922;28;20028;-66
2021/05/27 08:37:05;;;;;;;7.22;1.98;;;19.30;60.40;;;;;;5115075;28;20452;-67
2021/05/27 08:39:30;;;;;;;5.07;1.50;;;19.40;60.70;;;;;;5114848;28;20023;-66
2021/05/27 08:41:57;;;;;;;6.82;1.98;;;19.40;59.60;;;;;;5114656;28;20098;-66
2021/05/27 08:44:23;;;;;;;6.63;1.98;;;19.50;60.30;;;;;;5114817;28;20028;-66
2021/05/27 08:46:48;;;;;;;7.47;1.83;;;19.50;60.60;;;;;;5114643;28;20096;-67
2021/05/27 08:49:15;;;;;;;4.75;1.85;;;19.60;61.10;;;;;;5114534;28;20054;-67
2021/05/27 08:51:41;;;;;;;10.13;2.10;;;19.70;60.90;;;;;;5114759;28;20023;-67
2021/05/27 08:54:08;;;;;;;7.63;1.98;;;19.80;60.80;;;;;;5114670;28;20096;-67
2021/05/27 08:56:34;;;;;;;9.65;2.30;;;19.90;60.60;;;;;;5114585;28;20426;-67
2021/05/27 08:59:00;;;;;;;9.23;2.25;;;20.00;62.00;;;;;;5113965;28;20031;-67
2021/05/27 09:01:26;;;;;;;4.30;1.88;;;20.10;62.00;;;;;;5114384;28;20027;-68
2021/05/27 09:03:56;;;;;;;7.50;1.90;;;20.30;63.50;;;;;;5114500;28;20052;-67
2021/05/27 09:06:25;;;;;;;6.95;2.00;;;20.40;63.80;;;;;;5114694;28;20024;-68
2021/05/27 09:09:07;;;;;;;5.43;2.25;;;20.50;64.20;;;;;;5114219;28;20031;-68
2021/05/27 09:11:37;;;;;;;9.93;2.17;;;20.50;64.10;;;;;;5114383;28;20426;-67
2021/05/27 09:14:03;;;;;;;10.45;2.63;;;20.60;64.00;;;;;;5114326;28;20094;-67
2021/05/27 09:16:30;;;;;;;12.70;2.38;;;20.70;64.70;;;;;;5113906;28;20387;-68
2021/05/27 09:19:10;;;;;;;9.07;2.33;;;20.80;65.20;;;;;;5114003;28;20433;-67
2021/05/27 09:21:38;;;;;;;9.93;2.38;;;20.90;63.90;;;;;;5114267;28;20477;-67
2021/05/27 09:24:04;;;;;;;5.65;2.00;;;21.00;62.80;;;;;;5113998;28;20476;-68
2021/05/27 09:26:29;;;;;;;9.60;2.70;;;21.00;63.30;;;;;;5114141;28;20111;-68
2021/05/27 09:29:12;;;;;;;8.10;2.13;;;21.10;63.40;;;;;;5113847;28;20031;-68
2021/05/27 09:31:57;;;;;;;10.10;2.42;;;21.20;63.20;;;;;;5114172;28;20031;-68
2021/05/27 09:34:40;;;;;;;6.55;2.25;;;21.30;62.80;;;;;;5113976;28;20407;-68
2021/05/27 09:37:08;;;;;;;14.00;2.80;;;21.50;61.50;;;;;;5113712;28;20102;-68
2021/05/27 09:39:40;;;;;;;10.77;2.55;;;21.60;60.30;;;;;;5113731;28;20015;-68
2021/05/27 09:42:09;;;;;;;8.40;2.20;;;21.60;59.90;;;;;;5113822;28;20024;-68
2021/05/27 09:44:35;;;;;;;9.45;2.60;;;21.70;59.60;;;;;;5113776;28;20020;-68
2021/05/27 09:47:03;;;;;;;9.93;2.05;;;21.70;60.20;;;;;;5113483;28;20059;-67
2021/05/27 09:49:29;;;;;;;14.00;2.85;;;21.80;60.20;;;;;;5113689;28;20020;-67
2021/05/27 09:52:15;;;;;;;10.45;2.90;;;21.90;59.40;;;;;;5113724;28;20035;-68
2021/05/27 09:55:07;;;;;;;11.02;3.83;;;21.90;57.90;;;;;;5113739;28;20568;-68
2021/05/27 09:57:33;;;;;;;12.05;2.70;;;22.00;58.00;;;;;;5113452;28;20027;-67
2021/05/27 09:59:58;;;;;;;6.65;2.15;;;22.10;56.50;;;;;;5113739;28;20379;-67
2021/05/27 10:02:24;;;;;;;13.25;2.50;;;22.10;57.00;;;;;;5113711;28;20036;-68
2021/05/27 10:04:56;;;;;;;10.68;2.78;;;22.20;58.00;;;;;;5113481;28;20019;-68
2021/05/27 10:07:52;;;;;;;12.82;3.72;;;22.20;56.80;;;;;;5113452;28;20099;-68
2021/05/27 10:10:21;;;;;;;10.63;3.22;;;22.30;56.90;;;;;;5115258;28;20026;-68
2021/05/27 10:12:52;;;;;;;9.80;2.67;;;22.40;56.70;;;;;;5117823;28;20023;-67
2021/05/27 10:15:20;;;;;;;7.07;2.25;;;22.40;56.80;;;;;;5117656;28;20032;-68
2021/05/27 10:17:46;;;;;;;7.13;2.05;;;22.60;56.90;;;;;;5116836;28;20024;-68
2021/05/27 10:20:17;;;;;;;17.27;2.90;;;22.60;57.50;;;;;;5117009;28;20043;-68
2021/05/27 10:22:44;;;;;;;7.87;3.00;;;22.80;54.90;;;;;;5117224;28;20027;-68
2021/05/27 10:25:12;;;;;;;10.75;3.40;;;22.80;54.90;;;;;;5117061;28;20024;-68
2021/05/27 10:27:39;;;;;;;8.48;2.90;;;22.80;54.10;;;;;;5117264;28;20020;-68
2021/05/27 10:30:07;;;;;;;9.70;3.10;;;22.90;54.60;;;;;;5117128;28;20411;-68
2021/05/27 10:32:38;;;;;;;8.85;2.50;;;22.90;54.00;;;;;;5117095;28;20508;-68
2021/05/27 10:35:04;;;;;;;8.32;2.90;;;23.00;56.80;;;;;;5117061;28;20135;-68
2021/05/27 10:37:39;;;;;;;6.13;2.75;;;23.00;55.10;;;;;;5116875;28;20051;-71
2021/05/27 10:40:11;;;;;;;6.82;2.72;;;23.20;55.60;;;;;;5116502;28;20425;-68
2021/05/27 10:42:55;;;;;;;14.13;3.33;;;23.20;55.20;;;;;;5116970;28;20484;-70
2021/05/27 10:45:25;;;;;;;7.68;2.38;;;23.40;55.10;;;;;;5116930;28;20075;-68
2021/05/27 10:48:20;;;;;;;10.70;2.20;;;23.50;54.40;;;;;;5116649;28;20028;-69
2021/05/27 10:51:36;;;;;;;8.82;2.70;;;23.50;54.50;;;;;;5099836;28;20505;-68
2021/05/27 10:53:38;;;;;;;7.03;2.50;;;23.60;53.40;;;;;;5105294;28;20048;-67
2021/05/27 10:56:06;;;;;;;10.82;2.50;;;23.70;52.00;;;;;;5116427;28;20042;-67
2021/05/27 10:59:04;;;;;;;6.05;2.47;;;23.80;53.50;;;;;;5116417;28;20365;-67
2021/05/27 11:01:30;;;;;;;9.45;2.17;;;23.90;53.20;;;;;;5071672;28;20070;-67
2021/05/27 11:03:58;;;;;;;6.18;2.17;;;23.90;54.70;;;;;;5116898;28;20051;-67
2021/05/27 11:06:29;;;;;;;6.45;2.03;;;24.00;53.70;;;;;;5117129;28;20039;-67
2021/05/27 11:09:07;;;;;;;12.32;3.13;;;24.10;53.80;;;;;;5116344;28;20020;-67
2021/05/27 11:11:51;;;;;;;8.25;3.10;;;24.20;52.70;;;;;;5116568;28;20020;-67
2021/05/27 11:14:33;;;;;;;7.45;2.58;;;24.30;52.40;;;;;;5116524;28;20039;-67
2021/05/27 11:17:06;;;;;;;11.10;2.95;;;24.40;53.40;;;;;;5116672;28;20032;-67
2021/05/27 11:19:48;;;;;;;9.32;2.63;;;24.50;50.50;;;;;;5116478;28;20061;-67
2021/05/27 11:22:36;;;;;;;5.72;2.60;;;24.50;50.50;;;;;;5115354;28;20024;-71
2021/05/27 11:25:07;;;;;;;7.07;2.67;;;24.50;52.20;;;;;;5115929;28;20031;-68
2021/05/27 11:27:37;;;;;;;6.78;2.67;;;24.60;50.80;;;;;;5115969;28;20077;-68
2021/05/27 11:30:23;;;;;;;9.38;2.72;;;24.70;49.60;;;;;;5116048;28;20048;-68
2021/05/27 11:33:13;;;;;;;11.70;2.80;;;24.70;49.40;;;;;;5116370;28;20381;-68
2021/05/27 11:35:41;;;;;;;10.50;2.70;;;24.70;50.40;;;;;;5115901;28;20093;-68
2021/05/27 11:38:25;;;;;;;8.48;3.35;;;24.70;50.80;;;;;;5115997;28;20425;-68
2021/05/27 11:41:11;;;;;;;11.05;3.17;;;24.60;49.70;;;;;;5116149;28;20061;-68
2021/05/27 11:43:43;;;;;;;7.65;2.67;;;24.60;50.30;;;;;;5116100;28;20052;-67
2021/05/27 11:46:15;;;;;;;11.15;3.17;;;24.50;50.00;;;;;;5115923;28;20065;-68
2021/05/27 11:48:59;;;;;;;9.85;2.53;;;24.50;50.10;;;;;;5115482;28;20387;-68
2021/05/27 11:51:37;;;;;;;15.05;3.65;;;24.40;49.50;;;;;;5115679;28;20016;-67
2021/05/27 11:54:13;;;;;;;11.10;3.00;;;24.40;47.90;;;;;;5115553;28;20455;-67
2021/05/27 11:56:44;;;;;;;8.82;2.58;;;24.30;49.40;;;;;;5115543;28;20111;-67
2021/05/27 11:59:26;;;;;;;7.57;2.72;;;24.30;51.80;;;;;;5115497;28;20020;-67
2021/05/27 12:01:54;;;;;;;10.77;3.38;;;24.30;52.80;;;;;;5115502;28;20020;-67
2021/05/27 12:04:21;;;;;;;8.82;3.05;;;24.30;49.60;;;;;;5115280;28;20484;-68
2021/05/27 12:06:59;;;;;;;9.48;2.72;;;24.30;48.30;;;;;;5115276;28;20023;-68
2021/05/27 12:09:46;;;;;;;11.80;2.70;;;24.20;50.00;;;;;;5115033;28;20023;-67
2021/05/27 12:12:24;;;;;;;10.50;2.95;;;24.10;50.40;;;;;;5115116;28;20027;-67
2021/05/27 12:14:53;;;;;;;6.55;2.97;;;24.10;49.60;;;;;;5115213;28;20028;-67
2021/05/27 12:17:23;;;;;;;8.10;3.30;;;24.00;51.10;;;;;;5115024;28;20031;-67
2021/05/27 12:19:52;;;;;;;11.10;3.17;;;24.00;50.30;;;;;;5114663;28;20101;-68
2021/05/27 12:22:18;;;;;;;7.70;2.78;;;24.10;51.20;;;;;;5114817;28;20047;-67
2021/05/27 12:24:44;;;;;;;12.43;3.80;;;24.00;48.50;;;;;;5096477;28;20387;-67
2021/05/27 12:27:10;;;;;;;5.63;2.30;;;24.00;47.00;;;;;;5114778;28;20023;-67
2021/05/27 12:29:36;;;;;;;8.55;2.63;;;23.80;48.30;;;;;;5114535;28;20047;-67
2021/05/27 12:32:08;;;;;;;14.45;2.65;;;23.80;50.40;;;;;;5114560;28;20024;-67
2021/05/27 12:34:38;;;;;;;9.48;2.90;;;23.80;50.80;;;;;;5113879;28;20047;-67
2021/05/27 12:37:03;;;;;;;8.10;3.28;;;23.90;52.20;;;;;;5114449;28;20057;-67
2021/05/27 12:39:38;;;;;;;8.45;2.67;;;23.90;50.20;;;;;;5114334;28;20055;-67
2021/05/27 12:42:06;;;;;;;6.93;2.40;;;23.90;49.00;;;;;;5114058;28;20040;-67
2021/05/27 12:44:41;;;;;;;9.32;2.20;;;23.90;49.20;;;;;;5114596;28;20099;-67
2021/05/27 12:47:14;;;;;;;10.23;2.67;;;23.90;50.10;;;;;;5114645;28;20019;-70
2021/05/27 12:49:40;;;;;;;9.65;2.63;;;23.90;51.80;;;;;;5114521;28;20030;-71
2021/05/27 12:52:06;;;;;;;10.07;2.85;;;24.00;50.70;;;;;;5114074;28;20027;-67
2021/05/27 12:54:31;;;;;;;10.98;2.55;;;24.00;52.70;;;;;;5114005;28;20042;-67
2021/05/27 12:57:03;;;;;;;7.82;2.72;;;24.00;51.00;;;;;;5114173;28;20460;-70